Time;durP1;ratioP1;P1;durP2;ratioP2;P2;SDS_P1;SDS_P2;PMS_P1;PMS_P2;Temp;Humidity;BMP_temperature;BMP_pressure;BME280_temperature;BME280_humidity;BME280_pressure;Samples;Min_cycle;Max_cycle;Signal;HPM_P1;HPM_P2
2022/08/27 00:02:18;;;;;;;;;;;;;;;18.64;81.23;96292.09;5048768;28;19973;-80
2022/08/27 00:04:45;;;;;;;;;;;;;;;18.64;82.02;96287.56;5037610;28;19963;-80
2022/08/27 00:07:11;;;;;;;;;;;;;;;18.64;81.61;96284.91;5044377;28;20348;-80
2022/08/27 00:09:37;;;;;;;;;;;;;;;18.62;81.90;96280.94;5045269;28;20324;-80
2022/08/27 00:12:04;;;;;;;;;;;;;;;18.60;81.96;96286.53;5044645;28;20038;-79
2022/08/27 00:14:30;;;;;;;;;;;;;;;18.61;81.74;96282.03;5043713;28;19956;-80
2022/08/27 00:16:56;;;;;;;;;;;;;;;18.60;81.52;96283.06;5043373;28;20010;-80
2022/08/27 00:19:23;;;;;;;;;;;;;;;18.61;81.78;96284.69;5041256;28;19959;-80
2022/08/27 00:21:48;;;;;;;;;;;;;;;18.62;81.42;96288.91;5039734;28;19973;-79
2022/08/27 00:24:14;;;;;;;;;;;;;;;18.62;81.38;96292.34;5042576;28;20009;-80
2022/08/27 00:26:41;;;;;;;;;;;;;;;18.63;81.49;96295.81;5043317;28;20031;-80
2022/08/27 00:29:07;;;;;;;;;;;;;;;18.64;81.69;96302.72;5038048;28;19963;-80
2022/08/27 00:31:33;;;;;;;;;;;;;;;18.66;81.95;96303.25;5042245;28;19970;-80
2022/08/27 00:34:00;;;;;;;;;;;;;;;18.66;81.45;96298.72;5047141;28;19959;-80
2022/08/27 00:36:25;;;;;;;;;;;;;;;18.66;81.59;96296.06;5041764;28;19971;-80
2022/08/27 00:38:52;;;;;;;;;;;;;;;18.69;81.71;96293.91;5039618;28;20375;-80
2022/08/27 00:41:19;;;;;;;;;;;;;;;18.69;82.32;96285.94;5024344;28;19950;-80
2022/08/27 00:43:52;;;;;;;;;;;;;;;18.69;81.94;96281.47;5040550;28;19987;-80
2022/08/27 00:46:22;;;;;;;;;;;;;;;18.70;81.90;96284.91;5047447;28;19967;-80
2022/08/27 00:48:50;;;;;;;;;;;;;;;18.69;82.18;96278.81;5048609;28;19961;-79
2022/08/27 00:51:15;;;;;;;;;;;;;;;18.69;83.40;96283.28;5051522;28;19979;-80
2022/08/27 00:53:41;;;;;;;;;;;;;;;18.66;83.68;96274.81;5047321;28;19968;-79
2022/08/27 00:56:10;;;;;;;;;;;;;;;18.64;83.26;96281.47;5050014;28;19962;-80
2022/08/27 00:58:38;;;;;;;;;;;;;;;18.63;83.24;96279.88;5040004;28;19972;-80
2022/08/27 01:01:07;;;;;;;;;;;;;;;18.63;83.18;96278.03;5047495;28;19962;-80
2022/08/27 01:03:33;;;;;;;;;;;;;;;18.61;83.12;96282.81;5046464;28;19968;-80
2022/08/27 01:06:00;;;;;;;;;;;;;;;18.61;82.98;96274.84;5047240;28;19992;-80
2022/08/27 01:08:28;;;;;;;;;;;;;;;18.63;82.98;96275.38;5045033;28;19963;-80
2022/08/27 01:10:56;;;;;;;;;;;;;;;18.65;82.89;96275.09;5043654;28;20315;-80
2022/08/27 01:13:24;;;;;;;;;;;;;;;18.66;82.90;96276.69;5043688;28;19956;-80
2022/08/27 01:15:50;;;;;;;;;;;;;;;18.67;83.04;96272.97;5052451;28;19952;-80
2022/08/27 01:18:17;;;;;;;;;;;;;;;18.67;83.27;96273.75;5046112;28;19954;-80
2022/08/27 01:20:47;;;;;;;;;;;;;;;18.67;83.25;96276.41;5040365;28;19952;-80
2022/08/27 01:23:23;;;;;;;;;;;;;;;18.68;82.98;96269.22;5046607;28;19953;-79
2022/08/27 01:25:50;;;;;;;;;;;;;;;18.69;84.00;96272.66;5040982;28;19992;-79
2022/08/27 01:28:16;;;;;;;;;;;;;;;18.69;83.22;96267.34;5046022;28;19969;-80
2022/08/27 01:30:42;;;;;;;;;;;;;;;18.67;83.82;96263.13;5048872;28;19968;-80
2022/08/27 01:33:13;;;;;;;;;;;;;;;18.65;82.92;96262.59;5044498;28;19956;-80
2022/08/27 01:35:40;;;;;;;;;;;;;;;18.68;82.86;96258.59;5058229;28;19969;-80
2022/08/27 01:38:06;;;;;;;;;;;;;;;18.67;82.91;96255.16;5049095;28;19965;-80
2022/08/27 01:40:32;;;;;;;;;;;;;;;18.69;83.55;96254.91;5046842;28;19967;-79
2022/08/27 01:42:58;;;;;;;;;;;;;;;18.69;83.24;96249.59;5046056;28;19958;-80
2022/08/27 01:45:34;;;;;;;;;;;;;;;18.70;83.66;96251.16;5056980;28;19963;-80
2022/08/27 01:48:01;;;;;;;;;;;;;;;18.70;83.80;96247.72;5043530;28;19981;-80
2022/08/27 01:50:29;;;;;;;;;;;;;;;18.67;84.21;96241.88;5045044;28;19958;-80
2022/08/27 01:52:55;;;;;;;;;;;;;;;18.68;83.28;96242.66;5046198;28;19954;-80
2022/08/27 01:55:23;;;;;;;;;;;;;;;18.69;84.15;96235.50;5047181;28;19963;-80
2022/08/27 01:57:50;;;;;;;;;;;;;;;18.69;84.48;96230.16;5038840;28;20323;-80
2022/08/27 02:00:18;;;;;;;;;;;;;;;18.69;84.90;96235.50;5047934;28;19957;-80
2022/08/27 02:02:44;;;;;;;;;;;;;;;18.67;84.38;96231.25;5052228;28;19963;-80
2022/08/27 02:05:10;;;;;;;;;;;;;;;18.67;83.94;96238.44;5039574;28;19957;-80
2022/08/27 02:07:37;;;;;;;;;;;;;;;18.65;85.35;96232.59;5043396;28;20393;-80
2022/08/27 02:10:04;;;;;;;;;;;;;;;18.62;85.05;96235.78;5047244;28;19956;-80
2022/08/27 02:12:30;;;;;;;;;;;;;;;18.57;85.29;96230.53;5046496;28;19952;-80
2022/08/27 02:14:56;;;;;;;;;;;;;;;18.53;86.31;96237.44;5047917;28;20051;-79
2022/08/27 02:17:22;;;;;;;;;;;;;;;18.52;86.13;96233.19;5047057;28;20310;-80
2022/08/27 02:19:48;;;;;;;;;;;;;;;18.52;85.62;96241.16;5038040;28;20007;-80
2022/08/27 02:22:15;;;;;;;;;;;;;;;18.53;85.57;96240.09;5044486;28;19965;-80
2022/08/27 02:24:41;;;;;;;;;;;;;;;18.54;85.97;96242.50;5046401;28;19993;-80
2022/08/27 02:27:08;;;;;;;;;;;;;;;18.55;85.13;96232.66;5059337;28;19996;-80
2022/08/27 02:29:34;;;;;;;;;;;;;;;18.56;85.13;96228.91;5046036;28;19965;-80
2022/08/27 02:32:00;;;;;;;;;;;;;;;18.56;85.62;96229.75;5046831;28;20411;-80
2022/08/27 02:34:27;;;;;;;;;;;;;;;18.56;85.49;96237.69;5039222;28;19955;-80
2022/08/27 02:36:53;;;;;;;;;;;;;;;18.56;85.57;96245.66;5042531;28;19968;-80
2022/08/27 02:39:19;;;;;;;;;;;;;;;18.57;85.43;96243.81;5048742;28;19955;-79
2022/08/27 02:41:45;;;;;;;;;;;;;;;18.58;84.96;96240.06;5044146;28;19957;-80
2022/08/27 02:44:11;;;;;;;;;;;;;;;18.58;84.88;96237.41;5042910;28;20034;-80
2022/08/27 02:46:37;;;;;;;;;;;;;;;18.59;84.87;96241.66;5044575;28;20445;-80
2022/08/27 02:49:03;;;;;;;;;;;;;;;18.61;84.80;96250.16;5062482;28;19966;-80
2022/08/27 02:51:29;;;;;;;;;;;;;;;18.61;84.72;96236.88;5041512;28;20026;-80
2022/08/27 02:53:55;;;;;;;;;;;;;;;18.60;84.42;96233.41;5044774;28;19958;-80
2022/08/27 02:56:21;;;;;;;;;;;;;;;18.59;85.26;96236.34;5045704;28;20001;-80
2022/08/27 02:58:47;;;;;;;;;;;;;;;18.57;84.81;96236.63;5048992;28;19977;-80
2022/08/27 03:01:14;;;;;;;;;;;;;;;18.56;84.67;96237.69;5041990;28;20306;-79
2022/08/27 03:03:40;;;;;;;;;;;;;;;18.55;84.66;96243.28;5044885;28;19961;-80
2022/08/27 03:06:07;;;;;;;;;;;;;;;18.55;84.27;96240.63;5042983;28;20330;-80
2022/08/27 03:08:32;;;;;;;;;;;;;;;18.52;84.68;96234.00;5045373;28;20307;-80
2022/08/27 03:10:58;;;;;;;;;;;;;;;18.51;85.02;96243.03;5044697;28;20046;-80
2022/08/27 03:13:25;;;;;;;;;;;;;;;18.48;85.10;96235.63;5041126;28;19998;-80
2022/08/27 03:15:51;;;;;;;;;;;;;;;18.46;84.60;96243.06;5044539;28;19964;-79
2022/08/27 03:18:17;;;;;;;;;;;;;;;18.41;86.00;96243.06;5044195;28;19968;-76
2022/08/27 03:20:45;;;;;;;;;;;;;;;18.35;87.40;96242.31;5042558;28;19961;-77
2022/08/27 03:23:13;;;;;;;;;;;;;;;18.31;88.07;96233.31;5044409;28;20001;-78
2022/08/27 03:25:42;;;;;;;;;;;;;;;18.25;89.46;96237.84;5046920;28;20009;-79
2022/08/27 03:28:08;;;;;;;;;;;;;;;18.21;89.61;96236.00;5040668;28;20443;-79
2022/08/27 03:30:34;;;;;;;;;;;;;;;18.17;90.51;96238.41;5039792;28;19965;-79
2022/08/27 03:33:00;;;;;;;;;;;;;;;18.13;92.73;96234.69;5045520;28;19994;-80
2022/08/27 03:35:25;;;;;;;;;;;;;;;18.11;90.67;96236.03;5042299;28;20048;-79
2022/08/27 03:37:51;;;;;;;;;;;;;;;18.09;92.78;96235.50;5042622;28;20415;-79
2022/08/27 03:40:18;;;;;;;;;;;;;;;18.05;91.26;96240.56;5047325;28;19957;-79
2022/08/27 03:42:44;;;;;;;;;;;;;;;18.04;90.63;96244.28;5043677;28;20423;-78
2022/08/27 03:45:11;;;;;;;;;;;;;;;18.02;93.19;96239.25;5039391;28;19953;-77
2022/08/27 03:47:37;;;;;;;;;;;;;;;18.01;93.23;96242.16;5041100;28;19975;-77
2022/08/27 03:50:04;;;;;;;;;;;;;;;17.98;94.28;96243.50;5049021;28;19964;-77
2022/08/27 03:52:31;;;;;;;;;;;;;;;17.98;95.44;96246.16;5042689;28;20403;-77
2022/08/27 03:54:57;;;;;;;;;;;;;;;17.98;96.30;96245.38;5039323;28;19967;-78
2022/08/27 03:57:23;;;;;;;;;;;;;;;17.98;93.82;96240.84;5042071;28;19978;-78
2022/08/27 03:59:50;;;;;;;;;;;;;;;17.97;94.17;96241.09;5040030;28;20427;-79
2022/08/27 04:02:16;;;;;;;;;;;;;;;17.95;93.71;96233.41;5044644;28;20474;-79
2022/08/27 04:04:41;;;;;;;;;;;;;;;17.94;95.20;96231.03;5047061;28;19969;-79
2022/08/27 04:07:09;;;;;;;;;;;;;;;17.96;94.38;96236.88;5041613;28;19986;-79
2022/08/27 04:09:35;;;;;;;;;;;;;;;17.96;94.52;96232.38;5037812;28;19958;-80
2022/08/27 04:12:01;;;;;;;;;;;;;;;17.97;96.16;96233.94;5044375;28;19960;-79
2022/08/27 04:14:27;;;;;;;;;;;;;;;17.98;96.26;96238.19;5039904;28;20061;-79
2022/08/27 04:16:54;;;;;;;;;;;;;;;17.99;96.10;96233.66;5033937;28;19959;-79
2022/08/27 04:19:21;;;;;;;;;;;;;;;17.97;94.99;96239.25;5041187;28;19965;-79
2022/08/27 04:21:46;;;;;;;;;;;;;;;17.97;95.79;96233.16;5042118;28;19960;-79
2022/08/27 04:24:12;;;;;;;;;;;;;;;17.96;96.06;96235.00;5044704;28;19968;-78
2022/08/27 04:26:39;;;;;;;;;;;;;;;17.94;95.08;96236.34;4979140;28;1819479;-79
2022/08/27 04:29:05;;;;;;;;;;;;;;;17.92;95.51;96238.47;5046766;28;19969;-76
2022/08/27 04:31:31;;;;;;;;;;;;;;;17.91;96.39;96235.03;5042221;28;19960;-78
2022/08/27 04:33:57;;;;;;;;;;;;;;;17.90;96.08;96244.06;5047342;28;19977;-78
2022/08/27 04:36:23;;;;;;;;;;;;;;;17.90;95.21;96243.25;5042227;28;20443;-78
2022/08/27 04:38:49;;;;;;;;;;;;;;;17.87;95.81;96241.94;5040177;28;20013;-79
2022/08/27 04:41:22;;;;;;;;;;;;;;;17.89;96.32;96239.00;5039586;28;19973;-78
2022/08/27 04:43:48;;;;;;;;;;;;;;;17.90;96.88;96241.41;5042491;28;19973;-79
2022/08/27 04:46:28;;;;;;;;;;;;;;;17.91;96.57;96239.53;5038563;28;20320;-79
2022/08/27 04:48:55;;;;;;;;;;;;;;;17.91;95.78;96240.34;5045909;28;19963;-81
2022/08/27 04:51:21;;;;;;;;;;;;;;;17.92;97.28;96243.78;5049651;28;19966;-79
2022/08/27 04:53:48;;;;;;;;;;;;;;;17.91;95.81;96247.50;5035636;28;19962;-79
2022/08/27 04:56:15;;;;;;;;;;;;;;;17.91;95.58;96250.97;5048974;28;19987;-79
2022/08/27 04:58:41;;;;;;;;;;;;;;;17.91;96.70;96244.84;5046787;28;20345;-79
2022/08/27 05:01:08;;;;;;;;;;;;;;;17.91;96.46;96250.97;5042393;28;19958;-79
2022/08/27 05:03:34;;;;;;;;;;;;;;;17.94;96.56;96249.63;5047993;28;19959;-79
2022/08/27 05:06:02;;;;;;;;;;;;;;;17.95;98.60;96246.69;5039193;28;19962;-80
2022/08/27 05:08:28;;;;;;;;;;;;;;;17.96;96.71;96252.78;5046409;28;19979;-81
2022/08/27 05:10:54;;;;;;;;;;;;;;;17.96;96.54;96253.59;5046486;28;20420;-81
2022/08/27 05:13:21;;;;;;;;;;;;;;;17.98;96.22;96256.75;5048032;28;19957;-81
2022/08/27 05:15:47;;;;;;;;;;;;;;;18.00;96.48;96259.94;5042689;28;19963;-81
2022/08/27 05:18:13;;;;;;;;;;;;;;;18.03;96.35;96255.94;5040303;28;19964;-81
2022/08/27 05:20:41;;;;;;;;;;;;;;;18.06;95.77;96260.72;5050357;28;19955;-81
2022/08/27 05:23:07;;;;;;;;;;;;;;;18.07;96.84;96259.66;5046789;28;20434;-81
2022/08/27 05:25:37;;;;;;;;;;;;;;;18.08;96.08;96255.13;5045552;28;20038;-81
2022/08/27 05:28:03;;;;;;;;;;;;;;;18.09;96.30;96254.88;5044019;28;19991;-81
2022/08/27 05:30:33;;;;;;;;;;;;;;;18.10;96.26;96253.81;5049465;28;20421;-81
2022/08/27 05:32:59;;;;;;;;;;;;;;;18.10;94.86;96255.66;5048199;28;19972;-81
2022/08/27 05:35:25;;;;;;;;;;;;;;;18.08;95.22;96253.28;5048291;28;19978;-81
2022/08/27 05:37:51;;;;;;;;;;;;;;;18.07;96.80;96253.56;5046364;28;20055;-81
2022/08/27 05:40:17;;;;;;;;;;;;;;;18.08;96.71;96255.13;5051862;28;19997;-81
2022/08/27 05:42:43;;;;;;;;;;;;;;;18.08;96.52;96250.66;5048846;28;19977;-83
2022/08/27 05:45:09;;;;;;;;;;;;;;;18.13;96.70;96263.09;5037603;28;19980;-78
2022/08/27 05:47:35;;;;;;;;;;;;;;;18.17;96.31;96253.53;5045438;28;19976;-78
2022/08/27 05:50:02;;;;;;;;;;;;;;;18.23;97.15;96252.44;5045145;28;20366;-78
2022/08/27 05:52:28;;;;;;;;;;;;;;;18.28;96.92;96248.97;5046074;28;19976;-78
2022/08/27 05:54:54;;;;;;;;;;;;;;;18.31;96.87;96259.03;5044408;28;19964;-79
2022/08/27 05:57:20;;;;;;;;;;;;;;;18.35;96.09;96252.94;5044751;28;20381;-80
2022/08/27 06:02:30;;;;;;;;;;;;;;;18.44;96.04;96250.50;5045156;28;19957;-81
2022/08/27 06:04:56;;;;;;;;;;;;;;;18.48;95.54;96259.50;5044775;28;20429;-81
2022/08/27 06:07:22;;;;;;;;;;;;;;;18.50;95.95;96251.25;5050962;28;19980;-79
2022/08/27 06:09:48;;;;;;;;;;;;;;;18.55;95.90;96259.22;5034671;28;19960;-79
2022/08/27 06:12:14;;;;;;;;;;;;;;;18.61;96.44;96258.13;5046338;28;20008;-79
2022/08/27 06:14:40;;;;;;;;;;;;;;;18.65;96.47;96262.59;5045433;28;19993;-79
2022/08/27 06:17:05;;;;;;;;;;;;;;;18.70;96.69;96255.69;5050242;28;20362;-79
2022/08/27 06:19:33;;;;;;;;;;;;;;;18.75;95.84;96260.94;5043373;28;19964;-80
2022/08/27 06:22:01;;;;;;;;;;;;;;;18.79;96.39;96264.69;5043482;28;19963;-81
2022/08/27 06:24:27;;;;;;;;;;;;;;;18.81;95.89;96263.34;5049279;28;20431;-82
2022/08/27 06:26:53;;;;;;;;;;;;;;;18.85;95.45;96266.25;5044770;28;19987;-82
2022/08/27 06:29:20;;;;;;;;;;;;;;;18.88;95.37;96263.06;5043721;28;20057;-82
2022/08/27 06:31:47;;;;;;;;;;;;;;;18.90;95.56;96265.41;5045879;28;19962;-83
2022/08/27 06:34:14;;;;;;;;;;;;;;;18.90;94.52;96260.09;5041949;28;19968;-83
2022/08/27 06:36:41;;;;;;;;;;;;;;;18.89;95.13;96266.50;5046552;28;19968;-83
2022/08/27 06:39:07;;;;;;;;;;;;;;;18.89;94.64;96269.16;5047004;28;19958;-83
2022/08/27 06:41:33;;;;;;;;;;;;;;;18.89;94.24;96266.50;5040773;28;19959;-83
2022/08/27 06:43:59;;;;;;;;;;;;;;;18.89;95.49;96258.53;5045542;28;19971;-83
2022/08/27 06:46:26;;;;;;;;;;;;;;;18.91;95.51;96264.34;5047307;28;19973;-83
2022/08/27 06:48:53;;;;;;;;;;;;;;;18.95;96.58;96268.84;5040265;28;19990;-83
2022/08/27 06:51:23;;;;;;;;;;;;;;;19.02;96.54;96265.88;5044006;28;20343;-79
2022/08/27 06:53:49;;;;;;;;;;;;;;;19.06;94.75;96269.56;5046122;28;19986;-80
2022/08/27 06:56:16;;;;;;;;;;;;;;;19.11;95.94;96272.19;5062864;28;19963;-80
2022/08/27 06:58:42;;;;;;;;;;;;;;;19.13;95.48;96271.91;5040119;28;19968;-81
2022/08/27 07:01:28;;;;;;;;;;;;;;;19.13;93.57;96272.72;5041145;28;19971;-81
2022/08/27 07:03:55;;;;;;;;;;;;;;;19.13;94.63;96263.94;5026894;28;19974;-81
2022/08/27 07:06:22;;;;;;;;;;;;;;;19.13;94.88;96277.22;5040928;28;19964;-82
2022/08/27 07:08:48;;;;;;;;;;;;;;;19.12;95.95;96276.44;5038336;28;20444;-81
2022/08/27 07:11:14;;;;;;;;;;;;;;;19.14;95.58;96271.63;5040683;28;19962;-81
2022/08/27 07:13:41;;;;;;;;;;;;;;;19.16;95.83;96274.03;5044189;28;20034;-81
2022/08/27 07:16:09;;;;;;;;;;;;;;;19.17;95.17;96272.94;5047248;28;19973;-81
2022/08/27 07:18:35;;;;;;;;;;;;;;;19.18;95.95;96275.34;5042525;28;19967;-82
2022/08/27 07:21:04;;;;;;;;;;;;;;;19.18;94.39;96282.53;5044589;28;19963;-82
2022/08/27 07:23:31;;;;;;;;;;;;;;;19.18;94.68;96278.00;5043114;28;19956;-82
2022/08/27 07:25:57;;;;;;;;;;;;;;;19.21;94.46;96276.63;5040488;28;20001;-81
2022/08/27 07:28:24;;;;;;;;;;;;;;;19.23;93.94;96277.97;5043290;28;20457;-83
2022/08/27 07:30:51;;;;;;;;;;;;;;;19.26;94.62;96281.94;5046152;28;19962;-82
2022/08/27 07:33:17;;;;;;;;;;;;;;;19.30;94.03;96280.31;5044589;28;19955;-83
2022/08/27 07:35:44;;;;;;;;;;;;;;;19.37;93.71;96290.63;5048373;28;20044;-83
2022/08/27 07:38:10;;;;;;;;;;;;;;;19.42;94.14;96275.44;5038614;28;19964;-83
2022/08/27 07:40:36;;;;;;;;;;;;;;;19.50;92.77;96283.88;5045344;28;19969;-83
2022/08/27 07:45:54;;;;;;;;;;;;;;;19.60;92.97;96289.09;5043597;28;19959;-83
2022/08/27 07:48:21;;;;;;;;;;;;;;;19.65;92.47;96295.19;5043285;28;19978;-83
2022/08/27 07:50:47;;;;;;;;;;;;;;;19.68;92.19;96293.81;5043811;28;19958;-83
2022/08/27 07:53:13;;;;;;;;;;;;;;;19.71;92.72;96297.81;5043316;28;20120;-83
2022/08/27 07:55:39;;;;;;;;;;;;;;;19.72;92.64;96296.72;5041987;28;19990;-83
2022/08/27 07:58:05;;;;;;;;;;;;;;;19.76;93.21;96303.91;5043846;28;20331;-82
2022/08/27 08:00:31;;;;;;;;;;;;;;;19.82;94.50;96299.31;5047159;28;20058;-82
2022/08/27 08:02:58;;;;;;;;;;;;;;;19.88;92.55;96292.84;5041149;28;20337;-82
2022/08/27 08:05:24;;;;;;;;;;;;;;;19.92;91.79;96301.88;5039209;28;20413;-82
2022/08/27 08:07:50;;;;;;;;;;;;;;;19.94;91.57;96298.94;5048587;28;19979;-82
2022/08/27 08:10:17;;;;;;;;;;;;;;;19.90;90.46;96304.03;5040173;28;19974;-83
2022/08/27 08:12:43;;;;;;;;;;;;;;;19.83;90.43;96303.56;5042258;28;19960;-83
2022/08/27 08:15:09;;;;;;;;;;;;;;;19.82;92.19;96300.13;5038701;28;20418;-83
2022/08/27 08:17:36;;;;;;;;;;;;;;;19.87;90.91;96297.41;5043575;28;19959;-83
2022/08/27 08:20:03;;;;;;;;;;;;;;;19.93;91.69;96305.31;5046847;28;19967;-83
2022/08/27 08:22:29;;;;;;;;;;;;;;;20.00;91.47;96303.13;5044193;28;19966;-83
2022/08/27 08:24:55;;;;;;;;;;;;;;;20.03;90.34;96302.56;5040466;28;19999;-83
2022/08/27 08:27:22;;;;;;;;;;;;;;;20.04;89.60;96304.94;5046594;28;19974;-83
2022/08/27 08:29:48;;;;;;;;;;;;;;;20.02;88.23;96301.78;5044629;28;20407;-86
2022/08/27 08:32:14;;;;;;;;;;;;;;;20.00;88.52;96306.59;5046279;28;19962;-84
2022/08/27 08:34:40;;;;;;;;;;;;;;;20.00;90.00;96316.44;5040206;28;19959;-83
2022/08/27 08:37:06;;;;;;;;;;;;;;;19.98;87.69;96313.28;5039416;28;19955;-83
2022/08/27 08:39:33;;;;;;;;;;;;;;;19.97;87.92;96317.00;5062807;28;19977;-83
2022/08/27 08:42:00;;;;;;;;;;;;;;;19.96;87.31;96318.09;5043121;28;19966;-86
2022/08/27 08:44:30;;;;;;;;;;;;;;;19.95;87.40;96314.63;5044427;28;19967;-86
2022/08/27 08:47:15;;;;;;;;;;;;;;;19.98;88.80;96316.72;5042375;28;19965;-86
2022/08/27 08:49:45;;;;;;;;;;;;;;;20.02;88.38;96317.75;5035221;28;19979;-86
2022/08/27 08:52:28;;;;;;;;;;;;;;;20.12;88.13;96322.19;5035924;28;19966;-86
2022/08/27 08:55:01;;;;;;;;;;;;;;;20.20;88.97;96324.25;5045555;28;20482;-82
2022/08/27 08:57:31;;;;;;;;;;;;;;;20.28;88.75;96322.81;5043201;28;19969;-82
2022/08/27 09:00:13;;;;;;;;;;;;;;;20.36;86.85;96324.06;5041975;28;19969;-89
2022/08/27 09:02:42;;;;;;;;;;;;;;;20.43;86.57;96313.84;5043552;28;19965;-88
2022/08/27 09:05:08;;;;;;;;;;;;;;;20.47;86.67;96317.53;5043173;28;20407;-88
2022/08/27 09:07:40;;;;;;;;;;;;;;;20.53;86.21;96323.59;5039252;28;19967;-81
2022/08/27 09:10:12;;;;;;;;;;;;;;;20.57;86.17;96321.97;5046526;28;19951;-81
2022/08/27 09:12:38;;;;;;;;;;;;;;;20.59;86.64;96319.84;5042329;28;19957;-86
2022/08/27 09:15:08;;;;;;;;;;;;;;;20.58;85.93;96320.91;5046546;28;19961;-82
2022/08/27 09:17:34;;;;;;;;;;;;;;;20.52;86.43;96328.16;5042808;28;20002;-84
2022/08/27 09:20:00;;;;;;;;;;;;;;;20.47;86.21;96323.69;5044098;28;19960;-84
2022/08/27 09:22:39;;;;;;;;;;;;;;;20.44;86.77;96323.44;5041612;28;19967;-85
2022/08/27 09:25:31;;;;;;;;;;;;;;;20.40;86.39;96325.88;5031506;28;20419;-83
2022/08/27 09:28:00;;;;;;;;;;;;;;;20.38;86.98;96328.03;5038074;28;19973;-82
2022/08/27 09:30:28;;;;;;;;;;;;;;;20.40;87.02;96322.41;5044816;28;19969;-83
2022/08/27 09:33:03;;;;;;;;;;;;;;;20.37;86.60;96328.28;5048174;28;19984;-83
2022/08/27 09:35:39;;;;;;;;;;;;;;;20.37;87.28;96329.13;5052772;28;19958;-83
2022/08/27 09:38:05;;;;;;;;;;;;;;;20.39;87.68;96329.63;5035831;28;19957;-84
2022/08/27 09:40:37;;;;;;;;;;;;;;;20.39;86.92;96329.63;5044258;28;20331;-82
2022/08/27 09:43:08;;;;;;;;;;;;;;;20.39;87.41;96315.50;5042600;28;20344;-86
2022/08/27 09:45:34;;;;;;;;;;;;;;;20.42;87.61;96325.59;5047158;28;20226;-81
2022/08/27 09:48:08;;;;;;;;;;;;;;;20.45;86.63;96320.50;5044113;28;19974;-85
2022/08/27 09:50:54;;;;;;;;;;;;;;;20.51;86.92;96317.78;5045939;28;19965;-85
2022/08/27 09:53:32;;;;;;;;;;;;;;;20.55;86.44;96316.91;5061159;28;20345;-81
2022/08/27 09:56:00;;;;;;;;;;;;;;;20.58;86.20;96323.56;5048603;28;20331;-81
2022/08/27 09:58:43;;;;;;;;;;;;;;;20.57;85.79;96314.75;5049607;28;20304;-84
2022/08/27 10:01:17;;;;;;;;;;;;;;;20.55;85.33;96311.56;5046392;28;20431;-84
2022/08/27 10:03:42;;;;;;;;;;;;;;;20.52;85.40;96316.69;5049055;28;19967;-84
2022/08/27 10:06:09;;;;;;;;;;;;;;;20.49;85.56;96320.72;5044203;28;19953;-84
2022/08/27 10:08:41;;;;;;;;;;;;;;;20.46;86.01;96327.41;5045511;28;19981;-85
2022/08/27 10:11:16;;;;;;;;;;;;;;;20.42;85.93;96328.25;5043569;28;19956;-86
2022/08/27 10:14:04;;;;;;;;;;;;;;;20.37;86.62;96333.63;5066577;28;19964;-87
2022/08/27 10:16:32;;;;;;;;;;;;;;;20.33;86.32;96327.31;5047487;28;19983;-89
2022/08/27 10:19:16;;;;;;;;;;;;;;;20.25;86.81;96332.16;5038799;28;20436;-88
2022/08/27 10:21:43;;;;;;;;;;;;;;;20.19;87.85;96335.16;5046893;28;19959;-87
2022/08/27 10:24:16;;;;;;;;;;;;;;;20.13;88.06;96329.09;5043547;28;19977;-88
2022/08/27 10:26:49;;;;;;;;;;;;;;;20.08;88.74;96329.94;5039308;28;19996;-84
2022/08/27 10:29:23;;;;;;;;;;;;;;;20.06;88.63;96331.28;5043534;28;19973;-82
2022/08/27 10:31:59;;;;;;;;;;;;;;;20.04;88.48;96333.44;5043884;28;19956;-84
2022/08/27 10:34:37;;;;;;;;;;;;;;;20.00;88.95;96335.06;5045352;28;19962;-85
2022/08/27 10:37:03;;;;;;;;;;;;;;;19.98;90.38;96332.69;5045709;28;19956;-85
2022/08/27 10:39:35;;;;;;;;;;;;;;;20.00;89.05;96332.41;5045655;28;19954;-82
2022/08/27 10:42:03;;;;;;;;;;;;;;;20.06;89.93;96333.97;5039273;28;19963;-82
2022/08/27 10:44:39;;;;;;;;;;;;;;;20.16;88.75;96328.53;5032996;28;19969;-82
2022/08/27 10:47:38;;;;;;;;;;;;;;;20.30;88.87;96336.63;5045406;28;19955;-83
2022/08/27 10:50:12;;;;;;;;;;;;;;;20.48;87.54;96327.13;5031330;28;19983;-82
2022/08/27 10:52:58;;;;;;;;;;;;;;;20.58;87.00;96332.38;5043242;28;19968;-82
2022/08/27 10:55:31;;;;;;;;;;;;;;;20.66;86.63;96341.59;5040829;28;19984;-83
2022/08/27 10:58:15;;;;;;;;;;;;;;;20.70;85.66;96333.81;5035769;28;19962;-83
2022/08/27 11:00:54;;;;;;;;;;;;;;;20.77;85.63;96332.41;5041469;28;19964;-83
2022/08/27 11:03:39;;;;;;;;;;;;;;;20.90;85.68;96341.56;5042185;28;19958;-82
2022/08/27 11:06:13;;;;;;;;;;;;;;;20.99;84.35;96334.50;5044751;28;19959;-83
2022/08/27 11:08:48;;;;;;;;;;;;;;;21.10;84.43;96332.50;5035579;28;19974;-82
2022/08/27 11:11:22;;;;;;;;;;;;;;;21.26;84.26;96333.06;5035762;28;20326;-82
2022/08/27 11:13:50;;;;;;;;;;;;;;;21.37;82.42;96333.72;5042652;28;19964;-82
2022/08/27 11:16:19;;;;;;;;;;;;;;;21.42;81.92;96331.03;5034148;28;19970;-82
2022/08/27 11:18:52;;;;;;;;;;;;;;;21.52;79.33;96322.06;5037795;28;19986;-82
2022/08/27 11:21:24;;;;;;;;;;;;;;;21.71;78.78;96328.13;5047189;28;19961;-82
2022/08/27 11:23:50;;;;;;;;;;;;;;;21.91;78.40;96326.22;5040906;28;19959;-82
2022/08/27 11:26:15;;;;;;;;;;;;;;;22.04;78.43;96320.91;5040890;28;20021;-82
2022/08/27 11:28:46;;;;;;;;;;;;;;;22.07;76.80;96314.97;5048561;28;19986;-84
2022/08/27 11:31:12;;;;;;;;;;;;;;;22.20;77.90;96324.09;5041221;28;19960;-83
2022/08/27 11:33:57;;;;;;;;;;;;;;;22.20;75.90;96312.63;5043390;28;19954;-84
2022/08/27 11:36:41;;;;;;;;;;;;;;;22.26;75.09;96312.25;5043669;28;19958;-85
2022/08/27 11:39:13;;;;;;;;;;;;;;;22.37;74.96;96312.84;5043165;28;19960;-85
2022/08/27 11:41:58;;;;;;;;;;;;;;;22.43;75.03;96311.66;5041214;28;19968;-85
2022/08/27 11:44:25;;;;;;;;;;;;;;;22.61;75.28;96320.66;5044214;28;19959;-85
2022/08/27 11:47:08;;;;;;;;;;;;;;;22.74;74.11;96310.25;5041681;28;19957;-85
2022/08/27 11:49:48;;;;;;;;;;;;;;;22.82;72.71;96296.97;5042058;28;19981;-85
2022/08/27 11:52:26;;;;;;;;;;;;;;;22.88;72.53;96294.97;5043686;28;19964;-85
2022/08/27 11:54:57;;;;;;;;;;;;;;;22.84;71.06;96289.44;5064741;28;19967;-84
2022/08/27 11:57:26;;;;;;;;;;;;;;;22.74;71.27;96294.22;5036085;28;19956;-86
2022/08/27 11:59:52;;;;;;;;;;;;;;;22.67;71.94;96299.97;5036994;28;19960;-84
2022/08/27 12:02:26;;;;;;;;;;;;;;;22.62;72.55;96302.75;5045387;28;20409;-84
2022/08/27 12:04:56;;;;;;;;;;;;;;;22.47;73.67;96299.31;5035703;28;19960;-85
2022/08/27 12:07:26;;;;;;;;;;;;;;;22.41;73.03;96299.69;5032087;28;20343;-85
2022/08/27 12:09:52;;;;;;;;;;;;;;;22.36;74.14;96300.56;5034629;28;19978;-85
2022/08/27 12:12:23;;;;;;;;;;;;;;;22.19;73.00;96308.34;5031096;28;20340;-84
2022/08/27 12:14:59;;;;;;;;;;;;;;;22.12;73.34;96313.31;5024502;28;19951;-84
2022/08/27 12:17:47;;;;;;;;;;;;;;;22.09;74.04;96312.81;5026918;28;19949;-84
2022/08/27 12:20:21;;;;;;;;;;;;;;;22.02;75.17;96319.63;5026686;28;19966;-85
2022/08/27 12:25:32;;;;;;;;;;;;;;;22.00;76.07;96313.78;5027528;28;19983;-82
2022/08/27 12:28:03;;;;;;;;;;;;;;;21.93;75.49;96308.81;5030625;28;19965;-82
2022/08/27 12:30:29;;;;;;;;;;;;;;;21.82;75.17;96312.78;5038202;28;19955;-82
2022/08/27 12:32:56;;;;;;;;;;;;;;;21.73;76.19;96317.97;5036757;28;20053;-82
2022/08/27 12:35:41;;;;;;;;;;;;;;;21.67;76.70;96313.78;5023368;28;19966;-82
2022/08/27 12:38:27;;;;;;;;;;;;;;;21.61;76.48;96306.97;5037576;28;20353;-82
2022/08/27 12:40:54;;;;;;;;;;;;;;;21.56;76.67;96315.03;5034515;28;19963;-82
2022/08/27 12:43:25;;;;;;;;;;;;;;;21.49;76.38;96316.22;5045061;28;20034;-82
2022/08/27 12:45:55;;;;;;;;;;;;;;;21.46;76.95;96316.81;5040642;28;19955;-82
2022/08/27 12:48:27;;;;;;;;;;;;;;;21.44;76.96;96310.97;5056887;28;19956;-82
2022/08/27 12:50:58;;;;;;;;;;;;;;;21.40;77.09;96307.25;5045199;28;20334;-82
2022/08/27 12:53:24;;;;;;;;;;;;;;;21.39;77.53;96310.22;5034830;28;19962;-82
2022/08/27 12:55:58;;;;;;;;;;;;;;;21.37;77.26;96307.03;5034399;28;19967;-82
2022/08/27 12:58:37;;;;;;;;;;;;;;;21.35;77.38;96317.22;5034478;28;19958;-82
2022/08/27 13:01:16;;;;;;;;;;;;;;;21.34;77.49;96310.31;5035336;28;20435;-82
2022/08/27 13:03:47;;;;;;;;;;;;;;;21.34;77.00;96300.41;5037427;28;19964;-82
2022/08/27 13:06:21;;;;;;;;;;;;;;;21.32;76.72;96307.13;5042829;28;19967;-82